createdAt,value
2022-07-28T00:00:56.397Z,89.40
2022-07-28T00:03:23.254Z,90.50
2022-07-28T00:05:50.176Z,90.70
2022-07-28T00:08:17.230Z,90.80
2022-07-28T00:10:44.184Z,90.80
2022-07-28T00:13:10.970Z,90.90
2022-07-28T00:15:37.815Z,91.30
2022-07-28T00:18:04.648Z,91.30
2022-07-28T00:20:31.375Z,91.90
2022-07-28T00:22:58.154Z,92.10
2022-07-28T00:25:24.979Z,91.90
2022-07-28T00:27:51.697Z,91.80
2022-07-28T00:30:18.458Z,91.60
2022-07-28T00:32:46.562Z,91.30
2022-07-28T00:35:13.593Z,91.10
2022-07-28T00:37:41.848Z,91.10
2022-07-28T00:40:09.598Z,91.10
2022-07-28T00:42:36.392Z,91.00
2022-07-28T00:45:03.824Z,91.00
2022-07-28T00:47:34.006Z,91.20
2022-07-28T00:50:04.313Z,91.40
2022-07-28T00:52:32.037Z,91.60
2022-07-28T00:54:59.353Z,91.40
2022-07-28T00:57:26.049Z,91.10
2022-07-28T00:59:52.872Z,91.00
2022-07-28T01:02:20.377Z,91.10
2022-07-28T01:04:47.533Z,91.00
2022-07-28T01:07:14.448Z,90.90
2022-07-28T01:09:45.228Z,90.90
2022-07-28T01:12:33.922Z,91.00
2022-07-28T01:15:03.627Z,91.00
2022-07-28T01:17:40.028Z,90.90
2022-07-28T01:20:21.852Z,91.00
2022-07-28T01:23:14.227Z,91.00
2022-07-28T01:25:50.142Z,91.10
2022-07-28T01:28:38.588Z,91.10
2022-07-28T01:31:09.123Z,91.10
2022-07-28T01:33:39.670Z,91.50
2022-07-28T01:36:14.422Z,91.30
2022-07-28T01:38:42.816Z,91.10
2022-07-28T01:41:23.432Z,91.20
2022-07-28T01:43:59.434Z,91.60
2022-07-28T01:46:27.345Z,91.40
2022-07-28T01:48:56.556Z,91.30
2022-07-28T01:51:26.483Z,91.30
2022-07-28T01:53:55.227Z,91.40
2022-07-28T01:56:22.882Z,91.50
2022-07-28T01:58:51.731Z,91.40
2022-07-28T02:01:20.448Z,91.40
2022-07-28T02:03:48.602Z,91.50
2022-07-28T02:06:16.092Z,91.50
2022-07-28T02:08:43.430Z,91.50
2022-07-28T02:11:28.767Z,91.60
2022-07-28T02:13:56.489Z,91.90
2022-07-28T02:16:26.215Z,92.40
2022-07-28T02:18:55.687Z,92.70
2022-07-28T02:21:25.477Z,93.00
2022-07-28T02:23:54.239Z,93.30
2022-07-28T02:26:27.219Z,93.60
2022-07-28T02:28:56.634Z,93.60
2022-07-28T02:31:28.014Z,93.80
2022-07-28T02:34:02.008Z,93.70
2022-07-28T02:36:32.265Z,93.70
2022-07-28T02:39:05.235Z,93.70
2022-07-28T02:41:36.670Z,93.90
2022-07-28T02:44:11.931Z,94.10
2022-07-28T02:46:44.083Z,94.10
2022-07-28T02:49:23.802Z,94.40
2022-07-28T02:51:52.265Z,94.80
2022-07-28T02:54:20.835Z,95.10
2022-07-28T02:56:53.705Z,95.40
2022-07-28T02:59:21.784Z,95.40
2022-07-28T03:01:49.614Z,95.20
2022-07-28T03:04:38.052Z,95.30
2022-07-28T03:07:06.034Z,95.50
2022-07-28T03:09:45.780Z,95.80
2022-07-28T03:12:12.905Z,96.00
2022-07-28T03:14:40.299Z,96.30
2022-07-28T03:17:07.211Z,96.50
2022-07-28T03:19:34.714Z,96.90
2022-07-28T03:22:01.582Z,97.00
2022-07-28T03:24:32.366Z,97.00
2022-07-28T03:27:18.022Z,96.70
2022-07-28T03:29:48.993Z,96.60
2022-07-28T03:32:19.246Z,96.50
2022-07-28T03:34:46.773Z,96.70
2022-07-28T03:37:18.496Z,96.80
2022-07-28T03:39:48.514Z,97.00
2022-07-28T03:42:18.530Z,97.50
2022-07-28T03:44:48.884Z,98.00
2022-07-28T03:47:15.761Z,98.20
2022-07-28T03:49:46.240Z,98.50
2022-07-28T03:52:13.268Z,98.40
2022-07-28T03:54:39.955Z,98.10
2022-07-28T03:57:06.776Z,98.00
2022-07-28T03:59:33.542Z,98.70
2022-07-28T04:02:00.418Z,99.00
2022-07-28T04:04:28.146Z,99.30
2022-07-28T04:06:54.870Z,99.60
2022-07-28T04:09:23.158Z,99.90
2022-07-28T04:11:49.889Z,99.90
2022-07-28T04:14:17.964Z,99.90
2022-07-28T04:16:45.354Z,99.90
2022-07-28T04:19:12.137Z,99.90
2022-07-28T04:21:38.940Z,99.90
2022-07-28T04:24:06.384Z,99.90
2022-07-28T04:26:33.137Z,99.90
2022-07-28T04:28:59.817Z,99.90
2022-07-28T04:31:30.430Z,99.90
2022-07-28T04:33:57.225Z,99.90
2022-07-28T04:36:23.915Z,99.90
2022-07-28T04:38:50.659Z,99.90
2022-07-28T04:41:17.386Z,99.90
2022-07-28T04:43:45.408Z,99.90
2022-07-28T04:46:15.161Z,99.90
2022-07-28T04:48:42.437Z,99.90
2022-07-28T04:51:09.806Z,99.90
2022-07-28T04:53:36.594Z,99.90
2022-07-28T04:56:03.647Z,99.90
2022-07-28T04:58:30.931Z,99.90
2022-07-28T05:00:58.074Z,99.90
2022-07-28T05:03:24.894Z,99.90
2022-07-28T05:05:54.293Z,99.90
2022-07-28T05:08:26.259Z,99.90
2022-07-28T05:10:54.645Z,99.90
2022-07-28T05:13:21.337Z,99.90
2022-07-28T05:15:48.759Z,99.90
2022-07-28T05:18:15.844Z,99.90
2022-07-28T05:20:42.534Z,99.90
2022-07-28T05:23:11.597Z,99.90
2022-07-28T05:25:38.647Z,99.90
2022-07-28T05:28:05.532Z,99.90
2022-07-28T05:30:32.458Z,99.90
2022-07-28T05:33:01.263Z,99.90
2022-07-28T05:35:28.249Z,99.90
2022-07-28T05:37:55.004Z,99.90
2022-07-28T05:40:21.892Z,99.90
2022-07-28T05:42:48.730Z,99.90
2022-07-28T05:45:17.640Z,99.90
2022-07-28T05:47:47.341Z,99.90
2022-07-28T05:50:15.635Z,99.90
2022-07-28T05:52:42.345Z,99.90
2022-07-28T05:55:10.237Z,99.90
2022-07-28T05:57:38.014Z,99.90
2022-07-28T06:00:13.816Z,99.90
2022-07-28T06:02:41.932Z,99.90
2022-07-28T06:05:10.333Z,99.90
2022-07-28T06:07:43.036Z,99.90
2022-07-28T06:10:16.072Z,99.90
2022-07-28T06:12:44.940Z,99.90
2022-07-28T06:15:16.555Z,99.90
2022-07-28T06:17:43.679Z,99.90
2022-07-28T06:20:11.623Z,99.90
2022-07-28T06:22:55.179Z,99.90
2022-07-28T06:25:25.061Z,99.90
2022-07-28T06:27:55.499Z,99.90
2022-07-28T06:30:23.435Z,99.90
2022-07-28T06:32:51.125Z,99.90
2022-07-28T06:35:19.170Z,99.90
2022-07-28T06:37:48.078Z,99.90
2022-07-28T06:40:16.034Z,99.90
2022-07-28T06:42:43.560Z,99.90
2022-07-28T06:45:21.387Z,99.90
2022-07-28T06:47:49.337Z,99.90
2022-07-28T06:50:26.196Z,99.90
2022-07-28T06:52:59.006Z,99.90
2022-07-28T06:55:34.384Z,99.90
2022-07-28T06:58:02.061Z,99.90
2022-07-28T07:00:28.908Z,99.90
2022-07-28T07:02:55.689Z,99.90
2022-07-28T07:05:22.875Z,99.90
2022-07-28T07:07:49.614Z,99.90
2022-07-28T07:10:16.497Z,99.90
2022-07-28T07:12:43.320Z,99.90
2022-07-28T07:15:10.789Z,99.90
2022-07-28T07:17:37.659Z,99.90
2022-07-28T07:20:06.707Z,99.90
2022-07-28T07:22:33.693Z,99.90
2022-07-28T07:25:15.655Z,99.90
2022-07-28T07:27:46.257Z,99.90
2022-07-28T07:30:14.655Z,99.90
2022-07-28T07:32:41.769Z,99.90
2022-07-28T07:35:09.125Z,99.90
2022-07-28T07:37:36.075Z,99.90
2022-07-28T07:40:04.992Z,99.90
2022-07-28T07:42:32.079Z,99.90
2022-07-28T07:44:58.857Z,99.90
2022-07-28T07:47:25.604Z,99.90
2022-07-28T07:49:52.460Z,99.90
2022-07-28T07:52:19.250Z,99.90
2022-07-28T07:54:46.004Z,99.90
2022-07-28T07:57:13.258Z,99.90
2022-07-28T07:59:40.100Z,99.90
2022-07-28T08:02:07.118Z,99.90
2022-07-28T08:04:37.370Z,99.90
2022-07-28T08:07:06.346Z,99.90
2022-07-28T08:09:34.154Z,99.90
2022-07-28T08:12:00.939Z,99.90
2022-07-28T08:14:27.732Z,99.90
2022-07-28T08:16:56.698Z,99.90
2022-07-28T08:19:23.962Z,99.90
2022-07-28T08:21:52.109Z,99.90
2022-07-28T08:24:32.375Z,99.90
2022-07-28T08:27:01.687Z,99.90
2022-07-28T08:29:28.681Z,99.90
2022-07-28T08:31:55.568Z,99.90
2022-07-28T08:34:31.044Z,99.90
2022-07-28T08:37:02.041Z,99.90
2022-07-28T08:39:29.648Z,99.90
2022-07-28T08:42:06.688Z,99.90
2022-07-28T08:44:47.502Z,99.90
2022-07-28T08:47:16.428Z,99.90
2022-07-28T08:49:43.807Z,99.90
2022-07-28T08:52:12.615Z,99.90
2022-07-28T08:54:45.622Z,99.90
2022-07-28T08:57:30.680Z,99.90
2022-07-28T08:59:57.428Z,99.90
2022-07-28T09:02:27.026Z,99.90
2022-07-28T09:04:55.305Z,99.90
2022-07-28T09:07:23.382Z,99.90
2022-07-28T09:09:50.679Z,99.90
2022-07-28T09:12:27.245Z,99.90
2022-07-28T09:14:54.798Z,99.90
2022-07-28T09:17:23.320Z,99.90
2022-07-28T09:19:50.871Z,99.90
2022-07-28T09:22:17.786Z,99.90
2022-07-28T09:24:46.697Z,99.90
2022-07-28T09:27:15.745Z,99.90
2022-07-28T09:29:47.267Z,99.90
2022-07-28T09:32:15.782Z,99.20
2022-07-28T09:34:47.446Z,98.80
2022-07-28T09:37:26.792Z,98.80
2022-07-28T09:39:59.037Z,98.70
2022-07-28T09:42:26.657Z,98.40
2022-07-28T09:45:22.838Z,98.10
2022-07-28T09:48:12.091Z,97.80
2022-07-28T09:50:43.158Z,97.50
2022-07-28T09:53:28.361Z,97.60
2022-07-28T09:56:00.779Z,97.50
2022-07-28T09:58:32.513Z,96.60
2022-07-28T10:01:15.416Z,96.40
2022-07-28T10:03:50.793Z,96.80
2022-07-28T10:06:27.490Z,96.30
2022-07-28T10:08:56.389Z,96.10
2022-07-28T10:11:26.679Z,95.50
2022-07-28T10:14:13.595Z,94.80
2022-07-28T10:16:47.148Z,95.50
2022-07-28T10:19:13.937Z,94.80
2022-07-28T10:21:46.385Z,94.70
2022-07-28T10:24:23.874Z,95.20
2022-07-28T10:26:52.565Z,94.50
2022-07-28T10:29:21.908Z,94.70
2022-07-28T10:31:55.130Z,94.60
2022-07-28T10:34:42.111Z,94.50
2022-07-28T10:37:13.411Z,93.90
2022-07-28T10:39:44.719Z,94.10
2022-07-28T10:42:12.668Z,93.80
2022-07-28T10:44:41.530Z,94.00
2022-07-28T10:47:09.724Z,92.80
2022-07-28T10:49:48.586Z,92.90
2022-07-28T10:52:44.757Z,92.60
2022-07-28T10:55:36.758Z,92.60
2022-07-28T10:58:11.636Z,92.10
2022-07-28T11:00:56.597Z,92.10
2022-07-28T11:03:44.767Z,91.80
2022-07-28T11:06:27.889Z,92.00
2022-07-28T11:08:57.371Z,91.70
2022-07-28T11:11:42.639Z,91.30
2022-07-28T11:14:25.938Z,91.50
2022-07-28T11:17:05.676Z,90.20
2022-07-28T11:19:55.629Z,90.30
2022-07-28T11:22:32.178Z,89.50
2022-07-28T11:25:19.680Z,89.20
2022-07-28T11:27:51.908Z,89.30
2022-07-28T11:30:19.555Z,89.90
2022-07-28T11:32:55.137Z,89.00
2022-07-28T11:35:28.822Z,88.50
2022-07-28T11:38:01.754Z,88.70
2022-07-28T11:40:44.417Z,88.20
2022-07-28T11:43:36.552Z,88.80
2022-07-28T11:46:07.770Z,88.10
2022-07-28T11:48:42.143Z,87.60
2022-07-28T11:51:13.404Z,87.70
2022-07-28T11:53:43.352Z,85.20
2022-07-28T11:56:14.065Z,84.70
2022-07-28T11:58:41.915Z,85.70
2022-07-28T12:01:17.847Z,85.40
2022-07-28T12:03:53.988Z,84.90
2022-07-28T12:06:36.073Z,84.20
2022-07-28T12:09:08.917Z,83.60
2022-07-28T12:17:49.490Z,82.40
2022-07-28T12:20:26.862Z,81.70
2022-07-28T12:23:10.561Z,81.00
2022-07-28T12:25:50.576Z,81.80
2022-07-28T12:28:56.250Z,81.60
2022-07-28T12:31:30.157Z,81.10
2022-07-28T12:34:09.390Z,81.70
2022-07-28T12:36:53.853Z,81.60
2022-07-28T12:39:29.082Z,81.00
2022-07-28T12:42:30.390Z,81.00
2022-07-28T12:45:25.864Z,80.80
2022-07-28T12:47:57.614Z,80.60
2022-07-28T12:50:32.428Z,80.50
2022-07-28T12:53:14.019Z,79.90
2022-07-28T12:55:49.952Z,80.30
2022-07-28T12:58:31.856Z,81.00
2022-07-28T13:01:03.036Z,80.40
2022-07-28T13:03:35.133Z,80.50
2022-07-28T13:06:11.687Z,78.80
2022-07-28T13:08:53.565Z,79.80
2022-07-28T13:11:46.057Z,80.00
2022-07-28T13:14:20.574Z,79.40
2022-07-28T13:17:06.503Z,79.50
2022-07-28T13:20:12.049Z,78.80
2022-07-28T13:22:52.463Z,79.40
2022-07-28T13:25:30.683Z,78.50
2022-07-28T13:28:01.715Z,79.10
2022-07-28T13:30:32.375Z,77.90
2022-07-28T13:33:13.897Z,77.90
2022-07-28T13:35:52.436Z,77.90
2022-07-28T13:38:39.655Z,76.80
2022-07-28T13:41:13.140Z,76.80
2022-07-28T13:43:53.775Z,77.40
2022-07-28T13:46:34.485Z,77.80
2022-07-28T13:49:13.055Z,77.80
2022-07-28T13:52:13.178Z,76.40
2022-07-28T13:54:43.583Z,76.90
2022-07-28T13:57:25.514Z,77.10
2022-07-28T14:00:06.463Z,77.00
2022-07-28T14:02:47.319Z,77.40
2022-07-28T14:05:45.015Z,77.70
2022-07-28T14:08:30.999Z,77.00
2022-07-28T14:11:19.833Z,76.40
2022-07-28T14:13:59.738Z,76.60
2022-07-28T14:16:34.499Z,75.90
2022-07-28T14:19:05.187Z,76.20
2022-07-28T14:22:12.279Z,76.00
2022-07-28T14:24:53.025Z,75.90
2022-07-28T14:30:12.197Z,74.90
2022-07-28T14:32:56.068Z,75.00
2022-07-28T14:35:59.250Z,74.30
2022-07-28T14:38:51.959Z,74.80
2022-07-28T14:41:18.025Z,74.10
2022-07-28T14:43:57.675Z,73.30
2022-07-28T14:46:29.674Z,72.90
2022-07-28T14:49:08.609Z,73.00
2022-07-28T14:51:41.669Z,72.80
2022-07-28T14:54:21.055Z,73.00
2022-07-28T14:57:09.626Z,71.40
2022-07-28T14:59:49.906Z,71.00
2022-07-28T15:02:29.782Z,71.50
2022-07-28T15:05:32.342Z,71.60
2022-07-28T15:08:14.804Z,69.90
2022-07-28T15:11:07.257Z,70.10
2022-07-28T15:13:42.228Z,71.10
2022-07-28T15:19:24.219Z,70.20
2022-07-28T15:24:57.296Z,70.60
2022-07-28T15:27:33.781Z,70.20
2022-07-28T15:30:12.242Z,70.70
2022-07-28T15:35:56.510Z,70.90
2022-07-28T15:38:39.914Z,70.40
2022-07-28T15:41:21.597Z,70.30
2022-07-28T15:44:03.854Z,70.20
2022-07-28T15:46:40.817Z,70.30
2022-07-28T15:49:17.210Z,70.10
2022-07-28T15:52:15.543Z,69.80
2022-07-28T15:58:02.605Z,69.70
2022-07-28T16:00:38.881Z,69.90
2022-07-28T16:03:12.710Z,70.00
2022-07-28T16:08:50.297Z,69.50
2022-07-28T16:14:38.014Z,69.30
2022-07-28T16:20:24.282Z,69.70
2022-07-28T16:26:34.256Z,70.60
2022-07-28T16:32:45.311Z,69.40
2022-07-28T16:35:25.049Z,69.90
2022-07-28T16:38:20.847Z,69.40
2022-07-28T16:44:13.110Z,69.10
2022-07-28T16:47:17.770Z,69.10
2022-07-28T16:49:59.512Z,69.00
2022-07-28T16:52:27.822Z,69.00
2022-07-28T16:55:15.304Z,68.80
2022-07-28T16:58:25.515Z,69.60
2022-07-28T17:00:53.832Z,69.30
2022-07-28T17:03:26.734Z,69.50
2022-07-28T17:06:14.096Z,69.90
2022-07-28T17:08:59.048Z,70.10
2022-07-28T17:11:38.209Z,69.70
2022-07-28T17:14:14.603Z,69.40
2022-07-28T17:16:58.332Z,69.60
2022-07-28T17:19:47.067Z,69.60
2022-07-28T17:22:37.658Z,69.60
2022-07-28T17:28:21.004Z,69.80
2022-07-28T17:31:13.822Z,69.30
2022-07-28T17:33:56.112Z,69.40
2022-07-28T17:36:42.523Z,69.70
2022-07-28T17:42:27.296Z,70.20
2022-07-28T17:54:16.385Z,69.90
2022-07-28T17:57:17.289Z,69.50
2022-07-28T17:59:52.748Z,69.40
2022-07-28T18:02:48.206Z,69.80
2022-07-28T18:12:29.956Z,69.40
2022-07-28T18:15:26.676Z,69.10
2022-07-28T18:18:29.657Z,69.00
2022-07-28T18:21:28.292Z,68.90
2022-07-28T18:24:19.056Z,69.00
2022-07-28T18:26:46.120Z,69.10
2022-07-28T18:29:12.834Z,69.00
2022-07-28T18:31:45.900Z,68.90
2022-07-28T18:34:14.695Z,68.90
2022-07-28T18:36:41.881Z,68.80
2022-07-28T18:39:08.761Z,68.80
2022-07-28T18:41:47.322Z,69.00
2022-07-28T18:44:17.009Z,69.20
2022-07-28T18:46:44.491Z,69.20
2022-07-28T18:49:11.555Z,69.20
2022-07-28T18:51:38.653Z,69.60
2022-07-28T18:54:05.479Z,69.60
2022-07-28T18:56:33.111Z,69.70
2022-07-28T18:58:59.936Z,69.80
2022-07-28T19:01:26.764Z,69.70
2022-07-28T19:03:53.494Z,69.70
2022-07-28T19:06:20.690Z,69.90
2022-07-28T19:08:47.862Z,69.90
2022-07-28T19:11:19.565Z,69.90
2022-07-28T19:13:46.917Z,70.10
2022-07-28T19:16:13.918Z,69.90
2022-07-28T19:18:40.639Z,70.40
2022-07-28T19:21:08.478Z,71.10
2022-07-28T19:23:35.207Z,71.70
2022-07-28T19:26:02.612Z,71.80
2022-07-28T19:28:29.711Z,71.60
2022-07-28T19:30:58.517Z,72.20
2022-07-28T19:33:26.054Z,71.70
2022-07-28T19:35:52.803Z,72.70
2022-07-28T19:38:19.787Z,71.40
2022-07-28T19:40:46.564Z,73.80
2022-07-28T19:43:13.334Z,75.60
2022-07-28T19:45:40.272Z,77.50
2022-07-28T19:48:07.462Z,76.30
2022-07-28T19:50:35.083Z,80.20
2022-07-28T19:53:02.534Z,81.50
2022-07-28T19:55:32.186Z,82.10
2022-07-28T19:58:01.662Z,82.50
2022-07-28T20:00:28.722Z,82.60
2022-07-28T20:02:55.566Z,81.70
2022-07-28T20:05:22.796Z,82.80
2022-07-28T20:07:49.506Z,83.80
2022-07-28T20:10:16.203Z,85.60
2022-07-28T20:12:43.128Z,86.40
2022-07-28T20:15:10.269Z,88.90
2022-07-28T20:17:39.758Z,90.30
2022-07-28T20:20:09.074Z,91.40
2022-07-28T20:22:36.083Z,91.90
2022-07-28T20:25:03.609Z,92.00
2022-07-28T20:27:30.367Z,93.10
2022-07-28T20:29:59.119Z,93.50
2022-07-28T20:32:26.189Z,94.00
2022-07-28T20:34:53.067Z,95.00
2022-07-28T20:37:36.765Z,96.50
2022-07-28T20:40:05.745Z,98.40
2022-07-28T20:42:32.870Z,99.90
2022-07-28T20:44:59.593Z,99.90
2022-07-28T20:47:27.772Z,99.90
2022-07-28T20:49:55.385Z,99.90
2022-07-28T20:52:23.344Z,99.90
2022-07-28T20:54:54.512Z,99.90
2022-07-28T20:57:22.672Z,99.90
2022-07-28T20:59:51.262Z,99.90
2022-07-28T21:02:19.670Z,99.90
2022-07-28T21:04:46.777Z,99.90
2022-07-28T21:07:18.106Z,99.90
2022-07-28T21:10:09.684Z,99.90
2022-07-28T21:12:37.276Z,99.90
2022-07-28T21:15:08.619Z,99.90
2022-07-28T21:17:35.782Z,99.90
2022-07-28T21:20:02.912Z,99.90
2022-07-28T21:22:29.670Z,99.90
2022-07-28T21:24:56.632Z,99.90
2022-07-28T21:27:24.032Z,99.90
2022-07-28T21:32:18.675Z,99.90
2022-07-28T21:34:45.467Z,99.90
2022-07-28T21:37:13.016Z,99.90
2022-07-28T21:39:39.990Z,99.90
2022-07-28T21:42:08.416Z,99.90
2022-07-28T21:44:36.565Z,99.90
2022-07-28T21:47:03.479Z,99.90
2022-07-28T21:49:31.206Z,99.90
2022-07-28T21:51:58.048Z,99.90
2022-07-28T21:54:24.806Z,99.90
2022-07-28T21:56:51.540Z,99.90
2022-07-28T21:59:18.359Z,99.90
2022-07-28T22:01:45.442Z,99.90
2022-07-28T22:04:12.403Z,99.90
2022-07-28T22:06:39.241Z,99.90
2022-07-28T22:09:06.047Z,99.90
2022-07-28T22:11:32.780Z,99.90
2022-07-28T22:13:59.803Z,99.90
2022-07-28T22:16:26.688Z,99.90
2022-07-28T22:18:53.465Z,99.90
2022-07-28T22:21:20.157Z,99.90
2022-07-28T22:23:46.900Z,99.90
2022-07-28T22:26:13.634Z,99.90
2022-07-28T22:28:40.498Z,99.90
2022-07-28T22:31:10.070Z,99.90
2022-07-28T22:33:38.356Z,99.90
2022-07-28T22:36:06.977Z,99.90
2022-07-28T22:38:33.880Z,99.90
2022-07-28T22:41:00.614Z,99.90
2022-07-28T22:43:27.398Z,99.90
2022-07-28T22:45:54.180Z,99.90
2022-07-28T22:48:20.948Z,99.90
2022-07-28T22:50:47.670Z,99.90
2022-07-28T22:53:14.381Z,99.90
2022-07-28T22:55:41.176Z,99.90
2022-07-28T22:58:07.865Z,99.90
2022-07-28T23:00:36.296Z,99.90
2022-07-28T23:03:03.329Z,99.90
2022-07-28T23:05:30.826Z,99.90
2022-07-28T23:07:58.839Z,99.90
2022-07-28T23:10:26.555Z,99.90
2022-07-28T23:12:56.133Z,99.90
2022-07-28T23:15:39.357Z,99.90
2022-07-28T23:18:11.892Z,99.90
2022-07-28T23:20:39.323Z,99.90
2022-07-28T23:23:06.658Z,99.90
2022-07-28T23:25:35.651Z,99.90
2022-07-28T23:28:02.484Z,99.90
2022-07-28T23:30:29.286Z,99.90
2022-07-28T23:32:55.994Z,99.90
2022-07-28T23:35:23.029Z,99.90
2022-07-28T23:37:49.798Z,99.90
2022-07-28T23:40:16.624Z,99.90
2022-07-28T23:42:43.369Z,99.90
2022-07-28T23:45:10.707Z,99.90
2022-07-28T23:47:37.459Z,99.90
2022-07-28T23:50:05.137Z,99.90
2022-07-28T23:52:31.976Z,99.90
2022-07-28T23:54:58.976Z,99.90
2022-07-28T23:57:25.719Z,99.90
2022-07-28T23:59:58.751Z,99.90
